Accueil
METAR-TAF:

METAR-TAF

Aéroports :

Aéroport de Milan Malpensa

Milan, Italie

latitude: 45-37N, longitude: 008-44E, altitude: 234 m

Observation

Le bulletin a été fait il y a 32 minutes, à 15:50 UTC
Vent 3 kt de sud/sud-ouest, variant entre sud/sud-est et sud-ouest
Température 24°C
Humidité 61%
Pression 1018 hPa
Visibilité 10 km ou plus
pas de nuages en-dessous de 1500 mètres et pas de cumulonimbus.

METAR: LIMC 281550Z 20003KT 150V220 CAVOK 24/16 Q1018 NOSIG

Heure: 18:22 (16:22 UTC)

Prévision

Le bulletin a été fait il y a 5 heures et 22 minutes, à 11:00 UTC
Prévision valable du 28 à 12 UTC au 29 à 18 UTC
Vent 5 kt de direction variable
Visibilité 10 km ou plus
Quelques nuages à une hauteur de 2000 ft
Temporairement
du 28 à 22 UTC au 29 à 06 UTC
orage, pluie
Evoluant progressivement
du 29 à 16 UTC au 29 à 18 UTC
Vent 10 kt de nord

TAF: LIMC 281100Z 2812/2918 VRB05KT 9999 FEW020 TEMPO 2822/2906 TSRA BECMG 2916/2918 36010KT

Observations et prévisions météorologiques de plus de 4000 aéroports (messages METAR et TAF).

Les stations disponibles sont représentées par des disques jaunes et rouges sur la carte.

Passer la souris dessus pour voir le nom de la station.

Cliquer dessus pour voir les observations et prévisions météorologiques.

Pour changer de carte: cliquez sur les boutons verts avec une croix noire pour zoomer, sur le bouton vert avec un tiret pour effectuer un zoom arrière, ou sur les flèches vertes pour les cartes adjacentes.


METAR-TAF: